createdAt,value
2023-03-26T00:03:20.625Z,1.70
2023-03-26T00:08:23.273Z,1.70
2023-03-26T00:13:28.218Z,1.80
2023-03-26T00:18:31.581Z,1.70
2023-03-26T00:23:35.157Z,2.20
2023-03-26T00:28:40.530Z,2.10
2023-03-26T00:33:42.834Z,2.00
2023-03-26T00:38:46.852Z,1.80
2023-03-26T00:44:09.794Z,1.70
2023-03-26T00:49:14.916Z,1.90
2023-03-26T00:59:39.229Z,2.10
2023-03-26T01:04:46.011Z,1.40
2023-03-26T01:09:52.693Z,1.80
2023-03-26T01:15:00.776Z,1.80
2023-03-26T01:20:13.596Z,1.80
2023-03-26T01:25:15.788Z,2.20
2023-03-26T01:30:20.878Z,2.60
2023-03-26T01:35:35.184Z,2.00
2023-03-26T01:40:47.045Z,2.20
2023-03-26T01:45:51.384Z,2.20
2023-03-26T01:50:56.384Z,3.70
2023-03-26T01:56:29.317Z,3.00
2023-03-26T02:01:45.177Z,2.50
2023-03-26T02:07:20.995Z,2.90
2023-03-26T02:12:23.928Z,2.30
2023-03-26T02:17:26.150Z,2.20
2023-03-26T02:22:30.044Z,2.00
2023-03-26T02:27:33.910Z,2.50
2023-03-26T02:32:36.646Z,3.00
2023-03-26T02:37:39.843Z,2.70
2023-03-26T02:42:49.876Z,2.50
2023-03-26T02:47:52.290Z,2.40
2023-03-26T02:53:14.406Z,2.60
2023-03-26T02:58:17.517Z,2.40
2023-03-26T03:03:19.741Z,2.30
2023-03-26T03:08:50.430Z,2.30
2023-03-26T03:13:53.077Z,2.20
2023-03-26T03:18:58.479Z,2.20
2023-03-26T03:24:11.761Z,2.20
2023-03-26T03:29:20.378Z,1.90
2023-03-26T03:34:23.479Z,2.80
2023-03-26T03:39:26.057Z,2.70
2023-03-26T03:44:27.798Z,2.00
2023-03-26T03:49:29.793Z,2.60
2023-03-26T03:54:31.679Z,2.50
2023-03-26T03:59:47.652Z,3.20
2023-03-26T04:04:50.446Z,3.10
2023-03-26T04:09:56.204Z,3.00
2023-03-26T04:14:59.187Z,2.70
2023-03-26T04:20:14.512Z,2.60
2023-03-26T04:25:17.251Z,2.30
2023-03-26T04:30:27.350Z,2.10
2023-03-26T04:35:52.176Z,2.00
2023-03-26T04:40:54.904Z,2.10
2023-03-26T04:46:14.655Z,1.90
2023-03-26T04:51:38.169Z,2.00
2023-03-26T04:56:51.458Z,2.10
2023-03-26T05:02:06.195Z,1.90
2023-03-26T05:07:19.790Z,1.90
2023-03-26T05:12:28.054Z,1.80
2023-03-26T05:17:41.727Z,2.10
2023-03-26T05:22:50.116Z,2.10
2023-03-26T05:27:58.198Z,1.70
2023-03-26T05:33:04.412Z,1.90
2023-03-26T05:38:15.581Z,1.70
2023-03-26T05:43:17.319Z,1.60
2023-03-26T05:48:29.272Z,1.30
2023-03-26T05:53:32.280Z,1.90
2023-03-26T05:59:14.765Z,2.70
2023-03-26T06:04:41.158Z,1.80
2023-03-26T06:10:02.910Z,1.60
2023-03-26T06:15:06.181Z,1.50
2023-03-26T06:20:19.061Z,1.50
2023-03-26T06:25:23.757Z,1.80
2023-03-26T06:30:42.199Z,1.90
2023-03-26T06:36:08.773Z,1.50
2023-03-26T06:41:11.109Z,2.30
2023-03-26T06:46:27.687Z,1.70
2023-03-26T06:51:48.544Z,2.40
2023-03-26T06:56:59.940Z,1.90
2023-03-26T07:02:01.723Z,1.90
2023-03-26T07:07:24.700Z,2.10
2023-03-26T07:12:46.075Z,1.90
2023-03-26T07:18:13.699Z,1.90
2023-03-26T07:23:20.595Z,2.20
2023-03-26T07:29:05.460Z,3.60
2023-03-26T07:34:34.905Z,3.00
2023-03-26T07:40:10.421Z,1.70
2023-03-26T07:45:38.174Z,1.80
2023-03-26T07:50:56.704Z,2.10
2023-03-26T07:56:32.989Z,1.80
2023-03-26T08:01:56.308Z,2.00
2023-03-26T08:07:28.228Z,1.80
2023-03-26T08:13:39.923Z,1.50
2023-03-26T08:19:11.405Z,1.80
2023-03-26T08:24:24.974Z,1.90
2023-03-26T08:29:42.164Z,1.70
2023-03-26T08:34:44.544Z,1.80
2023-03-26T08:39:47.062Z,1.80
2023-03-26T08:45:22.745Z,1.90
2023-03-26T08:50:49.608Z,1.80
2023-03-26T08:56:12.890Z,1.80
2023-03-26T09:02:10.139Z,1.50
2023-03-26T09:07:49.380Z,1.90
2023-03-26T09:13:09.763Z,2.10
2023-03-26T09:18:46.241Z,1.60
2023-03-26T09:24:19.416Z,2.30
2023-03-26T09:30:00.372Z,1.80
2023-03-26T09:35:13.558Z,1.40
2023-03-26T09:40:22.521Z,1.70
2023-03-26T09:45:28.366Z,1.00
2023-03-26T09:50:48.621Z,2.30
2023-03-26T09:56:14.534Z,2.50
2023-03-26T10:01:29.494Z,2.80
2023-03-26T10:06:44.668Z,2.60
2023-03-26T10:12:06.680Z,2.20
2023-03-26T10:17:48.797Z,2.50
2023-03-26T10:23:13.909Z,4.00
2023-03-26T10:28:27.542Z,1.50
2023-03-26T10:34:06.348Z,1.80
2023-03-26T10:39:38.142Z,1.50
2023-03-26T10:44:45.339Z,1.90
2023-03-26T10:50:02.538Z,1.40
2023-03-26T10:55:18.522Z,1.80
2023-03-26T11:00:26.090Z,1.80
2023-03-26T11:05:45.813Z,1.40
2023-03-26T11:11:01.220Z,1.40
2023-03-26T11:16:14.402Z,1.50
2023-03-26T11:21:33.340Z,2.00
2023-03-26T11:27:21.328Z,1.00
2023-03-26T11:32:31.995Z,1.20
2023-03-26T11:37:43.816Z,1.10
2023-03-26T11:42:47.726Z,0.70
2023-03-26T11:48:12.771Z,1.00
2023-03-26T11:53:20.620Z,1.40
2023-03-26T11:58:29.826Z,1.40
2023-03-26T12:03:31.953Z,1.10
2023-03-26T12:08:39.222Z,1.00
2023-03-26T12:13:51.888Z,1.10
2023-03-26T12:19:07.384Z,1.10
2023-03-26T12:24:25.827Z,1.50
2023-03-26T12:29:34.080Z,1.90
2023-03-26T12:34:39.398Z,1.90
2023-03-26T12:40:10.487Z,1.90
2023-03-26T12:45:06.910Z,1.50
2023-03-26T12:50:14.765Z,1.50
2023-03-26T12:55:51.885Z,1.30
2023-03-26T13:01:02.913Z,1.90
2023-03-26T13:06:19.240Z,2.40
2023-03-26T13:11:26.692Z,1.60
2023-03-26T13:16:39.677Z,1.90
2023-03-26T13:22:01.381Z,1.60
2023-03-26T13:27:27.950Z,1.80
2023-03-26T13:33:03.629Z,1.50
2023-03-26T13:38:34.041Z,1.30
2023-03-26T13:43:41.529Z,1.70
2023-03-26T13:48:59.485Z,1.70
2023-03-26T13:54:07.606Z,2.10
2023-03-26T13:59:19.144Z,1.80
2023-03-26T14:04:33.695Z,1.60
2023-03-26T14:09:51.308Z,1.60
2023-03-26T14:15:04.283Z,1.40
2023-03-26T14:20:23.855Z,1.40
2023-03-26T14:25:44.489Z,1.50
2023-03-26T14:31:20.722Z,1.80
2023-03-26T14:37:06.335Z,2.10
2023-03-26T14:42:19.388Z,2.50
2023-03-26T14:47:23.761Z,2.80
2023-03-26T14:52:51.697Z,2.10
2023-03-26T14:58:09.508Z,2.60
2023-03-26T15:03:54.095Z,1.30
2023-03-26T15:09:14.097Z,1.60
2023-03-26T15:14:39.123Z,1.90
2023-03-26T15:19:46.994Z,2.10
2023-03-26T15:25:13.632Z,2.00
2023-03-26T15:30:53.120Z,1.80
2023-03-26T15:36:30.337Z,2.10
2023-03-26T15:41:45.870Z,1.80
2023-03-26T15:46:59.749Z,3.70
2023-03-26T15:52:26.054Z,2.40
2023-03-26T15:57:41.103Z,1.50
2023-03-26T16:03:09.287Z,1.80
2023-03-26T16:08:30.904Z,1.60
2023-03-26T16:13:39.004Z,3.10
2023-03-26T16:19:39.433Z,6.00
2023-03-26T16:25:27.399Z,6.70
2023-03-26T16:30:32.795Z,5.80
2023-03-26T16:36:20.391Z,5.40
2023-03-26T16:41:27.546Z,4.50
2023-03-26T16:46:43.974Z,3.80
2023-03-26T16:52:14.069Z,6.90
2023-03-26T16:57:28.488Z,3.10
2023-03-26T17:02:49.164Z,3.70
2023-03-26T17:08:35.919Z,4.00
2023-03-26T17:13:56.478Z,5.60
2023-03-26T17:19:14.084Z,5.20
2023-03-26T17:29:49.663Z,3.80
2023-03-26T17:34:52.654Z,3.90
2023-03-26T17:40:00.428Z,4.40
2023-03-26T17:45:17.572Z,3.40
2023-03-26T17:50:51.982Z,3.30
2023-03-26T17:55:57.579Z,2.40
2023-03-26T18:01:24.519Z,3.70
2023-03-26T18:06:46.575Z,3.20
2023-03-26T18:12:17.503Z,3.20
2023-03-26T18:17:19.734Z,3.50
2023-03-26T18:22:30.677Z,5.00
2023-03-26T18:27:41.156Z,3.90
2023-03-26T18:32:52.765Z,3.30
2023-03-26T18:38:00.951Z,2.50
2023-03-26T18:43:02.962Z,4.10
2023-03-26T18:48:10.024Z,3.30
2023-03-26T18:53:20.734Z,2.10
2023-03-26T18:58:30.134Z,2.10
2023-03-26T19:03:36.178Z,3.30
2023-03-26T19:08:41.925Z,4.80
2023-03-26T19:13:46.349Z,4.10
2023-03-26T19:18:48.709Z,3.20
2023-03-26T19:23:52.289Z,3.40
2023-03-26T19:28:57.607Z,4.20
2023-03-26T19:34:11.633Z,3.20
2023-03-26T19:39:21.692Z,3.90
2023-03-26T19:44:33.385Z,4.10
2023-03-26T19:49:58.604Z,3.60
2023-03-26T19:55:01.621Z,3.10
2023-03-26T20:00:13.331Z,2.80
2023-03-26T20:05:26.954Z,2.30
2023-03-26T20:10:28.689Z,2.60
2023-03-26T20:15:33.962Z,2.70
2023-03-26T20:20:36.493Z,2.60
2023-03-26T20:25:46.490Z,2.70
2023-03-26T20:30:50.082Z,3.30
2023-03-26T20:35:56.823Z,4.00
2023-03-26T20:40:59.822Z,3.20
2023-03-26T20:46:01.693Z,3.30
2023-03-26T20:51:04.886Z,3.80
2023-03-26T20:56:13.682Z,14.50
2023-03-26T21:01:20.474Z,14.80
2023-03-26T21:06:24.971Z,13.80
2023-03-26T21:11:52.514Z,9.30
2023-03-26T21:16:55.505Z,8.50
2023-03-26T21:22:10.018Z,7.30
2023-03-26T21:27:31.038Z,9.90
2023-03-26T21:32:34.123Z,9.40
2023-03-26T21:37:37.666Z,6.80
2023-03-26T21:42:46.711Z,8.90
2023-03-26T21:48:03.044Z,10.00
2023-03-26T21:53:08.127Z,8.70
2023-03-26T21:58:20.489Z,7.50
2023-03-26T22:03:27.922Z,11.00
2023-03-26T22:08:31.715Z,12.60
2023-03-26T22:13:35.804Z,10.70
2023-03-26T22:18:37.934Z,11.00
2023-03-26T22:23:39.710Z,10.70
2023-03-26T22:28:41.570Z,10.90
2023-03-26T22:33:44.082Z,12.60
2023-03-26T22:38:46.625Z,20.50
2023-03-26T22:43:52.090Z,14.90
2023-03-26T22:48:54.765Z,11.20
2023-03-26T22:53:56.478Z,8.90
2023-03-26T22:58:58.384Z,9.30
2023-03-26T23:04:00.286Z,10.80
2023-03-26T23:09:03.935Z,12.70
2023-03-26T23:14:28.827Z,13.30
2023-03-26T23:19:34.044Z,13.70
2023-03-26T23:24:37.834Z,17.60
2023-03-26T23:29:39.745Z,13.70
2023-03-26T23:34:51.922Z,13.20
2023-03-26T23:40:22.486Z,10.70
2023-03-26T23:45:24.772Z,9.70
2023-03-26T23:50:33.207Z,8.90
2023-03-26T23:55:35.633Z,8.40
